Terminal Aerodrome Forecast
Issued by NWS Greer, SC

Current Version | Previous Version | Text Only | Print | Product List | Glossary On
Versions: 1 2 3 4 5 6 7 8 9 10 11 12 13 14 15 16 17 18 19
000
FTUS42 KGSP 251723
TAFGSP
TAF
KGSP 251723Z 2518/2618 20005KT 6SM BR OVC004
     FM252100 21005KT P6SM SCT010 BKN020
     FM260000 23010KT P6SM BKN035 WS020/24030KT PROB30 2603/2607 4SM
      TSRA BKN025CB
     FM260700 24012KT P6SM BKN021 WS020/27030KT
     FM261400 27009KT P6SM SCT021=

USA.gov is the U.S. government's official web portal to all federal, state and local government web resources and services.